createdAt,value
2023-05-09T00:00:37.475Z,11.30
2023-05-09T00:03:14.416Z,11.40
2023-05-09T00:05:42.454Z,10.10
2023-05-09T00:08:10.088Z,9.50
2023-05-09T00:10:37.671Z,13.30
2023-05-09T00:13:06.232Z,10.90
2023-05-09T00:15:34.198Z,10.80
2023-05-09T00:18:01.941Z,10.40
2023-05-09T00:20:29.612Z,11.60
2023-05-09T00:22:57.255Z,10.20
2023-05-09T00:25:25.278Z,10.00
2023-05-09T00:27:52.880Z,9.60
2023-05-09T00:30:20.476Z,9.70
2023-05-09T00:32:48.193Z,9.80
2023-05-09T00:35:16.434Z,9.20
2023-05-09T00:37:44.277Z,8.20
2023-05-09T00:40:12.447Z,7.70
2023-05-09T00:42:40.115Z,8.40
2023-05-09T00:45:08.793Z,7.40
2023-05-09T00:47:36.482Z,8.30
2023-05-09T00:50:05.261Z,12.60
2023-05-09T00:52:33.409Z,12.00
2023-05-09T00:55:01.026Z,9.70
2023-05-09T00:57:28.680Z,9.20
2023-05-09T00:59:56.242Z,8.80
2023-05-09T01:02:24.175Z,8.30
2023-05-09T01:04:52.052Z,8.40
2023-05-09T01:07:39.458Z,9.70
2023-05-09T01:10:16.321Z,8.30
2023-05-09T01:12:52.584Z,9.10
2023-05-09T01:15:26.811Z,9.10
2023-05-09T01:17:58.871Z,8.80
2023-05-09T01:20:30.563Z,9.10
2023-05-09T01:23:30.573Z,10.30
2023-05-09T01:26:10.214Z,14.70
2023-05-09T01:28:56.960Z,11.50
2023-05-09T01:31:24.817Z,9.90
2023-05-09T01:33:54.899Z,11.30
2023-05-09T01:36:22.536Z,9.60
2023-05-09T01:38:50.513Z,9.60
2023-05-09T01:41:18.156Z,9.50
2023-05-09T01:43:46.285Z,9.50
2023-05-09T01:46:14.329Z,9.40
2023-05-09T01:48:42.316Z,8.80
2023-05-09T01:51:10.081Z,9.10
2023-05-09T01:53:37.678Z,9.10
2023-05-09T01:56:05.696Z,9.80
2023-05-09T01:58:33.784Z,9.40
2023-05-09T02:01:01.462Z,14.20
2023-05-09T02:03:30.054Z,13.10
2023-05-09T02:05:57.667Z,9.80
2023-05-09T02:08:25.353Z,10.00
2023-05-09T02:10:53.254Z,9.60
2023-05-09T02:13:21.088Z,10.10
2023-05-09T02:15:48.835Z,9.50
2023-05-09T02:18:17.378Z,9.60
2023-05-09T02:20:45.012Z,9.10
2023-05-09T02:23:12.775Z,9.90
2023-05-09T02:25:40.728Z,9.60
2023-05-09T02:28:09.176Z,10.20
2023-05-09T02:30:43.324Z,9.20
2023-05-09T02:33:12.749Z,9.20
2023-05-09T02:35:42.433Z,13.20
2023-05-09T02:38:10.132Z,13.20
2023-05-09T02:40:37.730Z,11.70
2023-05-09T02:43:05.500Z,10.50
2023-05-09T02:45:33.142Z,9.70
2023-05-09T02:48:00.956Z,9.90
2023-05-09T02:50:28.721Z,10.20
2023-05-09T02:52:56.339Z,11.20
2023-05-09T02:55:24.084Z,12.00
2023-05-09T02:57:58.976Z,12.80
2023-05-09T03:00:33.258Z,12.40
2023-05-09T03:03:00.925Z,11.40
2023-05-09T03:05:28.735Z,10.50
2023-05-09T03:07:56.370Z,13.80
2023-05-09T03:10:24.045Z,13.70
2023-05-09T03:12:51.766Z,12.30
2023-05-09T03:15:20.471Z,10.00
2023-05-09T03:17:48.256Z,9.20
2023-05-09T03:20:16.091Z,9.50
2023-05-09T03:22:43.788Z,10.30
2023-05-09T03:25:11.420Z,8.70
2023-05-09T03:27:39.040Z,8.30
2023-05-09T03:30:07.751Z,7.90
2023-05-09T03:32:35.424Z,8.10
2023-05-09T03:35:03.409Z,7.50
2023-05-09T03:37:31.179Z,14.10
2023-05-09T03:39:58.780Z,12.30
2023-05-09T03:42:26.406Z,9.50
2023-05-09T03:44:55.067Z,7.10
2023-05-09T03:47:22.683Z,7.70
2023-05-09T03:49:50.746Z,7.40
2023-05-09T03:52:18.415Z,6.70
2023-05-09T03:54:46.159Z,7.40
2023-05-09T03:57:13.799Z,7.20
2023-05-09T03:59:41.495Z,6.70
2023-05-09T04:02:09.164Z,5.90
2023-05-09T04:04:36.941Z,11.20
2023-05-09T04:07:04.528Z,10.20
2023-05-09T04:09:32.211Z,7.10
2023-05-09T04:11:59.856Z,8.70
2023-05-09T04:14:27.451Z,7.40
2023-05-09T04:16:55.090Z,7.00
2023-05-09T04:19:22.991Z,6.40
2023-05-09T04:21:50.825Z,6.70
2023-05-09T04:24:18.473Z,8.00
2023-05-09T04:26:46.277Z,5.90
2023-05-09T04:29:13.943Z,12.40
2023-05-09T04:31:41.664Z,11.00
2023-05-09T04:34:09.478Z,8.60
2023-05-09T04:36:37.072Z,6.90
2023-05-09T04:39:05.400Z,5.30
2023-05-09T04:41:33.035Z,6.30
2023-05-09T04:44:00.922Z,4.30
2023-05-09T04:46:28.629Z,4.60
2023-05-09T04:48:56.355Z,5.90
2023-05-09T04:51:24.138Z,9.10
2023-05-09T04:53:52.292Z,7.10
2023-05-09T04:56:19.972Z,5.90
2023-05-09T04:58:47.652Z,5.30
2023-05-09T05:01:16.811Z,4.40
2023-05-09T05:03:45.996Z,5.90
2023-05-09T05:06:13.699Z,4.90
2023-05-09T05:08:41.329Z,6.20
2023-05-09T05:11:08.952Z,7.40
2023-05-09T05:13:36.596Z,8.40
2023-05-09T05:16:04.807Z,6.10
2023-05-09T05:18:32.628Z,5.00
2023-05-09T05:21:00.261Z,5.70
2023-05-09T05:23:27.879Z,6.20
2023-05-09T05:25:55.591Z,5.30
2023-05-09T05:28:23.682Z,8.00
2023-05-09T05:30:51.342Z,5.30
2023-05-09T05:33:19.006Z,6.50
2023-05-09T05:35:46.706Z,5.10
2023-05-09T05:38:14.303Z,5.30
2023-05-09T05:40:41.998Z,5.40
2023-05-09T05:43:09.647Z,6.00
2023-05-09T05:45:37.835Z,6.30
2023-05-09T05:48:05.760Z,5.90
2023-05-09T05:50:33.554Z,3.80
2023-05-09T05:53:01.225Z,4.50
2023-05-09T05:55:28.979Z,5.00
2023-05-09T05:57:56.756Z,5.00
2023-05-09T06:00:24.529Z,4.30
2023-05-09T06:02:52.386Z,4.30
2023-05-09T06:05:20.445Z,4.00
2023-05-09T06:07:48.316Z,4.20
2023-05-09T06:10:17.132Z,4.80
2023-05-09T06:12:44.826Z,4.20
2023-05-09T06:15:12.766Z,3.80
2023-05-09T06:17:40.920Z,4.70
2023-05-09T06:20:08.775Z,3.50
2023-05-09T06:22:36.362Z,4.10
2023-05-09T06:25:04.388Z,4.10
2023-05-09T06:27:31.981Z,3.70
2023-05-09T06:30:00.270Z,4.30
2023-05-09T06:32:28.127Z,4.40
2023-05-09T06:34:56.059Z,4.80
2023-05-09T06:37:23.635Z,4.50
2023-05-09T06:39:51.393Z,4.50
2023-05-09T06:42:19.120Z,4.20
2023-05-09T06:44:46.851Z,3.60
2023-05-09T06:47:14.562Z,4.80
2023-05-09T06:49:42.879Z,4.30
2023-05-09T06:52:10.477Z,3.30
2023-05-09T06:54:39.120Z,5.10
2023-05-09T06:57:06.703Z,4.20
2023-05-09T06:59:34.356Z,4.50
2023-05-09T07:02:02.140Z,4.50
2023-05-09T07:04:29.938Z,3.70
2023-05-09T07:06:59.269Z,4.10
2023-05-09T07:09:28.824Z,4.70
2023-05-09T07:11:56.570Z,4.60
2023-05-09T07:14:24.180Z,4.10
2023-05-09T07:16:51.896Z,4.80
2023-05-09T07:19:19.651Z,4.20
2023-05-09T07:21:47.254Z,4.10
2023-05-09T07:24:14.913Z,3.50
2023-05-09T07:26:42.533Z,3.20
2023-05-09T07:29:10.166Z,4.10
2023-05-09T07:31:37.864Z,4.30
2023-05-09T07:34:05.506Z,3.80
2023-05-09T07:36:35.340Z,3.70
2023-05-09T07:39:04.886Z,3.50
2023-05-09T07:41:32.524Z,3.40
2023-05-09T07:44:00.143Z,3.10
2023-05-09T07:46:27.847Z,3.20
2023-05-09T07:48:55.767Z,3.20
2023-05-09T07:51:24.043Z,3.70
2023-05-09T07:53:51.657Z,3.90
2023-05-09T07:56:19.292Z,3.50
2023-05-09T07:58:46.943Z,3.70
2023-05-09T08:01:14.791Z,3.20
2023-05-09T08:03:42.536Z,4.40
2023-05-09T08:06:10.220Z,4.00
2023-05-09T08:08:38.967Z,3.10
2023-05-09T08:11:06.913Z,3.00
2023-05-09T08:13:34.519Z,3.70
2023-05-09T08:16:02.764Z,4.10
2023-05-09T08:18:30.466Z,3.50
2023-05-09T08:20:59.747Z,3.30
2023-05-09T08:23:28.169Z,3.20
2023-05-09T08:25:56.345Z,3.80
2023-05-09T08:28:24.432Z,3.00
2023-05-09T08:30:52.403Z,3.30
2023-05-09T08:33:20.182Z,2.60
2023-05-09T08:35:54.016Z,4.10
2023-05-09T08:38:21.691Z,3.10
2023-05-09T08:40:49.387Z,4.20
2023-05-09T08:43:19.837Z,3.10
2023-05-09T08:45:58.639Z,3.10
2023-05-09T08:50:56.201Z,3.10
2023-05-09T08:53:23.924Z,3.10
2023-05-09T08:55:52.278Z,3.50
2023-05-09T08:58:22.772Z,3.00
2023-05-09T09:00:50.847Z,2.80
2023-05-09T09:03:19.368Z,3.40
2023-05-09T09:05:47.585Z,2.80
2023-05-09T09:08:15.448Z,2.70
2023-05-09T09:10:47.171Z,2.50
2023-05-09T09:13:15.452Z,3.00
2023-05-09T09:15:44.155Z,3.20
2023-05-09T09:18:13.005Z,2.70
2023-05-09T09:20:43.708Z,3.00
2023-05-09T09:23:11.453Z,3.50
2023-05-09T09:25:39.305Z,2.60
2023-05-09T09:28:07.113Z,3.60
2023-05-09T09:30:34.884Z,3.70
2023-05-09T09:33:02.552Z,2.20
2023-05-09T09:35:30.347Z,3.00
2023-05-09T09:38:00.139Z,3.30
2023-05-09T09:40:28.100Z,2.70
2023-05-09T09:42:56.038Z,3.60
2023-05-09T09:45:23.770Z,3.10
2023-05-09T09:47:51.408Z,3.80
2023-05-09T09:50:20.227Z,3.60
2023-05-09T09:52:57.838Z,3.70
2023-05-09T09:55:25.475Z,3.00
2023-05-09T09:57:53.183Z,2.80
2023-05-09T10:00:27.832Z,2.90
2023-05-09T10:02:59.197Z,3.40
2023-05-09T10:05:29.131Z,4.00
2023-05-09T10:08:01.564Z,3.80
2023-05-09T10:13:07.474Z,2.90
2023-05-09T10:15:49.462Z,3.30
2023-05-09T10:18:23.128Z,3.80
2023-05-09T10:20:50.907Z,2.60
2023-05-09T10:23:18.672Z,3.60
2023-05-09T10:25:55.542Z,3.90
2023-05-09T10:28:25.294Z,3.50
2023-05-09T10:31:22.136Z,3.80
2023-05-09T10:33:50.377Z,3.40
2023-05-09T10:36:20.713Z,3.10
2023-05-09T10:38:49.188Z,3.20
2023-05-09T10:41:17.270Z,3.30
2023-05-09T10:43:45.864Z,3.50
2023-05-09T10:46:13.652Z,2.70
2023-05-09T10:48:42.195Z,2.70
2023-05-09T10:51:10.328Z,3.40
2023-05-09T10:53:50.905Z,3.00
2023-05-09T10:56:32.720Z,3.20
2023-05-09T10:59:00.477Z,3.10
2023-05-09T11:01:34.827Z,3.20
2023-05-09T11:04:08.916Z,3.20
2023-05-09T11:06:51.366Z,3.30
2023-05-09T11:09:29.439Z,2.70
2023-05-09T11:11:59.437Z,3.10
2023-05-09T11:14:40.808Z,3.20
2023-05-09T11:17:12.937Z,3.20
2023-05-09T11:22:15.362Z,3.20
2023-05-09T11:24:50.196Z,2.80
2023-05-09T11:27:21.973Z,2.40
2023-05-09T11:29:59.843Z,2.50
2023-05-09T11:32:28.846Z,2.70
2023-05-09T11:35:17.855Z,2.90
2023-05-09T11:38:02.288Z,2.80
2023-05-09T11:40:30.229Z,2.80
2023-05-09T11:42:58.948Z,2.50
2023-05-09T11:45:30.885Z,2.50
2023-05-09T11:47:58.709Z,2.70
2023-05-09T11:50:26.543Z,2.60
2023-05-09T11:52:54.234Z,2.30
2023-05-09T11:55:22.945Z,2.50
2023-05-09T11:57:52.542Z,2.60
2023-05-09T12:00:24.429Z,2.60
2023-05-09T12:02:52.808Z,2.80
2023-05-09T12:05:21.506Z,2.60
2023-05-09T12:07:49.253Z,2.60
2023-05-09T12:10:19.914Z,3.00
2023-05-09T12:12:49.166Z,2.80
2023-05-09T12:15:17.678Z,2.70
2023-05-09T12:17:47.297Z,2.30
2023-05-09T12:20:15.958Z,2.80
2023-05-09T12:22:43.913Z,2.60
2023-05-09T12:25:12.085Z,2.50
2023-05-09T12:27:41.074Z,2.80
2023-05-09T12:30:10.597Z,2.60
2023-05-09T12:32:40.460Z,2.50
2023-05-09T12:35:09.639Z,2.70
2023-05-09T12:37:37.837Z,2.60
2023-05-09T12:40:12.612Z,2.20
2023-05-09T12:42:43.128Z,2.20
2023-05-09T12:45:11.707Z,2.40
2023-05-09T12:47:39.672Z,2.50
2023-05-09T12:50:08.268Z,2.70
2023-05-09T12:52:50.721Z,2.80
2023-05-09T12:55:26.501Z,2.40
2023-05-09T12:58:03.861Z,2.30
2023-05-09T13:00:47.031Z,2.40
2023-05-09T13:03:26.081Z,2.50
2023-05-09T13:05:57.516Z,2.10
2023-05-09T13:08:25.656Z,2.60
2023-05-09T13:11:00.734Z,2.50
2023-05-09T13:13:32.052Z,2.90
2023-05-09T13:15:59.794Z,3.40
2023-05-09T13:18:27.456Z,2.50
2023-05-09T13:20:55.124Z,2.60
2023-05-09T13:23:22.963Z,2.10
2023-05-09T13:25:51.721Z,2.20
2023-05-09T13:28:19.323Z,2.90
2023-05-09T13:30:47.166Z,2.00
2023-05-09T13:33:25.374Z,2.50
2023-05-09T13:35:54.304Z,2.60
2023-05-09T13:38:21.982Z,2.30
2023-05-09T13:40:49.759Z,2.80
2023-05-09T13:43:17.360Z,2.30
2023-05-09T13:45:45.056Z,2.40
2023-05-09T13:48:12.882Z,2.90
2023-05-09T13:50:40.685Z,2.40
2023-05-09T13:53:08.451Z,2.40
2023-05-09T13:55:36.066Z,2.60
2023-05-09T13:58:03.669Z,2.50
2023-05-09T14:00:31.393Z,2.10
2023-05-09T14:02:59.094Z,2.10
2023-05-09T14:05:26.919Z,2.60
2023-05-09T14:07:55.044Z,2.70
2023-05-09T14:10:24.166Z,2.10
2023-05-09T14:12:53.546Z,1.90
2023-05-09T14:15:21.303Z,2.50
2023-05-09T14:17:49.095Z,2.40
2023-05-09T14:20:16.969Z,2.20
2023-05-09T14:22:45.003Z,2.30
2023-05-09T14:25:12.741Z,2.40
2023-05-09T14:27:40.641Z,2.70
2023-05-09T14:30:09.254Z,2.60
2023-05-09T14:32:37.251Z,2.40
2023-05-09T14:35:05.466Z,2.70
2023-05-09T14:37:33.962Z,2.40
2023-05-09T14:40:05.545Z,2.50
2023-05-09T14:42:33.327Z,2.40
2023-05-09T14:45:00.996Z,2.20
2023-05-09T14:47:28.761Z,2.30
2023-05-09T14:49:56.768Z,2.40
2023-05-09T14:52:24.407Z,1.80
2023-05-09T14:54:52.038Z,2.30
2023-05-09T14:57:19.898Z,2.60
2023-05-09T14:59:47.491Z,2.60
2023-05-09T15:02:15.090Z,2.20
2023-05-09T15:04:43.868Z,2.30
2023-05-09T15:07:11.963Z,2.30
2023-05-09T15:09:39.617Z,2.60
2023-05-09T15:12:07.393Z,2.30
2023-05-09T15:14:35.120Z,2.30
2023-05-09T15:17:04.364Z,2.20
2023-05-09T15:19:33.948Z,2.30
2023-05-09T15:22:02.620Z,2.20
2023-05-09T15:24:30.796Z,2.20
2023-05-09T15:26:58.633Z,2.40
2023-05-09T15:29:26.793Z,2.30
2023-05-09T15:31:54.615Z,2.60
2023-05-09T15:34:22.978Z,2.20
2023-05-09T15:36:50.826Z,4.90
2023-05-09T15:39:18.464Z,4.60
2023-05-09T15:41:46.087Z,2.70
2023-05-09T15:44:14.751Z,2.40
2023-05-09T15:46:42.492Z,3.20
2023-05-09T15:49:10.197Z,2.90
2023-05-09T15:51:38.054Z,2.80
2023-05-09T15:54:05.644Z,3.60
2023-05-09T15:56:33.226Z,3.00
2023-05-09T15:59:01.180Z,3.00
2023-05-09T16:01:28.812Z,2.50
2023-05-09T16:03:56.851Z,4.20
2023-05-09T16:06:24.642Z,2.70
2023-05-09T16:08:52.479Z,3.40
2023-05-09T16:11:20.206Z,3.00
2023-05-09T16:13:47.923Z,2.90
2023-05-09T16:16:15.724Z,3.20
2023-05-09T16:18:43.569Z,2.60
2023-05-09T16:21:11.783Z,3.10
2023-05-09T16:23:39.602Z,2.30
2023-05-09T16:26:07.339Z,2.60
2023-05-09T16:28:35.033Z,2.70
2023-05-09T16:31:05.045Z,4.20
2023-05-09T16:33:32.829Z,3.40
2023-05-09T16:36:00.785Z,3.90
2023-05-09T16:38:28.420Z,2.80
2023-05-09T16:40:56.392Z,7.10
2023-05-09T16:43:24.262Z,5.70
2023-05-09T16:45:52.898Z,32.20
2023-05-09T16:48:20.654Z,4.70
2023-05-09T16:50:48.409Z,2.70
2023-05-09T16:53:17.590Z,3.00
2023-05-09T16:55:45.995Z,2.50
2023-05-09T16:58:13.754Z,2.80
2023-05-09T17:00:41.338Z,3.90
2023-05-09T17:03:09.108Z,6.60
2023-05-09T17:05:36.933Z,5.10
2023-05-09T17:08:05.273Z,9.10
2023-05-09T17:10:34.177Z,5.10
2023-05-09T17:13:07.689Z,4.00
2023-05-09T17:15:35.666Z,3.00
2023-05-09T17:18:03.704Z,3.60
2023-05-09T17:20:31.824Z,4.20
2023-05-09T17:22:59.472Z,4.30
2023-05-09T17:25:27.528Z,4.80
2023-05-09T17:27:55.142Z,4.70
2023-05-09T17:30:23.390Z,4.70
2023-05-09T17:32:51.410Z,4.40
2023-05-09T17:35:20.802Z,4.20
2023-05-09T17:37:48.716Z,3.80
2023-05-09T17:40:16.660Z,4.10
2023-05-09T17:42:44.442Z,4.20
2023-05-09T17:45:14.923Z,3.70
2023-05-09T17:47:42.558Z,15.90
2023-05-09T17:50:14.542Z,9.10
2023-05-09T17:52:44.025Z,5.40
2023-05-09T17:55:12.189Z,4.60
2023-05-09T17:57:40.786Z,4.20
2023-05-09T18:00:09.349Z,3.70
2023-05-09T18:02:37.178Z,4.00
2023-05-09T18:05:05.817Z,4.40
2023-05-09T18:07:33.903Z,4.50
2023-05-09T18:10:01.650Z,6.60
2023-05-09T18:12:31.148Z,11.20
2023-05-09T18:14:58.869Z,8.40
2023-05-09T18:17:26.473Z,7.20
2023-05-09T18:19:54.056Z,6.60
2023-05-09T18:22:22.313Z,4.90
2023-05-09T18:24:49.993Z,5.00
2023-05-09T18:27:17.624Z,6.00
2023-05-09T18:29:47.505Z,5.50
2023-05-09T18:32:15.481Z,5.40
2023-05-09T18:34:43.437Z,5.40
2023-05-09T18:37:11.104Z,6.10
2023-05-09T18:39:38.711Z,5.60
2023-05-09T18:42:06.579Z,7.40
2023-05-09T18:44:35.198Z,6.80
2023-05-09T18:47:02.897Z,5.00
2023-05-09T18:49:30.542Z,4.50
2023-05-09T18:52:00.199Z,5.40
2023-05-09T18:54:27.863Z,5.70
2023-05-09T18:56:55.441Z,7.00
2023-05-09T18:59:23.584Z,7.70
2023-05-09T19:01:51.214Z,7.50
2023-05-09T19:04:19.601Z,6.10
2023-05-09T19:06:47.604Z,4.90
2023-05-09T19:09:15.478Z,4.90
2023-05-09T19:11:43.409Z,4.40
2023-05-09T19:14:11.037Z,4.50
2023-05-09T19:16:38.679Z,5.80
2023-05-09T19:19:06.324Z,8.50
2023-05-09T19:21:35.724Z,5.80
2023-05-09T19:24:04.799Z,6.50
2023-05-09T19:26:32.515Z,6.40
2023-05-09T19:29:01.332Z,6.90
2023-05-09T19:31:31.382Z,5.50
2023-05-09T19:33:59.857Z,4.30
2023-05-09T19:36:27.527Z,4.30
2023-05-09T19:38:55.178Z,4.00
2023-05-09T19:41:22.798Z,6.60
2023-05-09T19:43:51.457Z,12.80
2023-05-09T19:46:19.426Z,8.20
2023-05-09T19:48:47.134Z,8.00
2023-05-09T19:51:15.527Z,8.10
2023-05-09T19:53:43.156Z,5.30
2023-05-09T19:56:11.673Z,5.40
2023-05-09T19:58:39.271Z,5.30
2023-05-09T20:01:07.361Z,6.20
2023-05-09T20:03:37.021Z,7.60
2023-05-09T20:06:05.036Z,8.80
2023-05-09T20:08:32.778Z,11.20
2023-05-09T20:11:00.400Z,10.00
2023-05-09T20:13:28.146Z,9.30
2023-05-09T20:15:57.134Z,8.80
2023-05-09T20:18:24.851Z,8.60
2023-05-09T20:20:53.952Z,8.20
2023-05-09T20:23:21.567Z,8.00
2023-05-09T20:25:49.273Z,6.80
2023-05-09T20:28:20.323Z,7.50
2023-05-09T20:30:48.680Z,8.30
2023-05-09T20:33:16.330Z,7.00
2023-05-09T20:35:43.995Z,7.10
2023-05-09T20:38:11.692Z,5.90
2023-05-09T20:40:40.349Z,5.70
2023-05-09T20:43:08.134Z,5.80
2023-05-09T20:45:37.497Z,5.80
2023-05-09T20:48:06.655Z,5.90
2023-05-09T20:50:34.400Z,6.70
2023-05-09T20:53:02.063Z,5.50
2023-05-09T20:55:29.726Z,5.90
2023-05-09T20:57:57.987Z,6.00
2023-05-09T21:00:25.659Z,5.90
2023-05-09T21:02:56.910Z,6.10
2023-05-09T21:05:26.179Z,5.30
2023-05-09T21:07:53.881Z,5.00
2023-05-09T21:10:21.492Z,4.80
2023-05-09T21:12:49.148Z,4.40
2023-05-09T21:15:16.923Z,4.40
2023-05-09T21:17:44.739Z,4.50
2023-05-09T21:20:12.812Z,4.20
2023-05-09T21:22:40.665Z,4.50
2023-05-09T21:25:09.015Z,4.40
2023-05-09T21:27:36.621Z,3.60
2023-05-09T21:30:04.982Z,4.10
2023-05-09T21:32:32.589Z,4.00
2023-05-09T21:35:01.432Z,4.30
2023-05-09T21:37:29.201Z,4.60
2023-05-09T21:39:57.216Z,4.70
2023-05-09T21:42:24.953Z,4.70
2023-05-09T21:44:52.614Z,3.90
2023-05-09T21:47:20.600Z,4.10
2023-05-09T21:49:48.352Z,4.50
2023-05-09T21:52:16.496Z,4.50
2023-05-09T21:54:44.304Z,4.20
2023-05-09T21:57:11.899Z,4.40
2023-05-09T21:59:39.508Z,4.40
2023-05-09T22:02:07.186Z,3.50
2023-05-09T22:04:34.889Z,4.20
2023-05-09T22:07:02.542Z,4.40
2023-05-09T22:09:30.450Z,4.10
2023-05-09T22:11:58.103Z,4.00
2023-05-09T22:14:25.806Z,3.60
2023-05-09T22:16:53.530Z,4.10
2023-05-09T22:19:21.301Z,4.20
2023-05-09T22:21:49.079Z,5.80
2023-05-09T22:24:16.723Z,4.30
2023-05-09T22:26:44.321Z,4.50
2023-05-09T22:29:12.034Z,3.50
2023-05-09T22:31:39.673Z,4.50
2023-05-09T22:34:07.359Z,4.40
2023-05-09T22:36:35.049Z,4.50
2023-05-09T22:39:03.206Z,4.30
2023-05-09T22:41:30.786Z,4.00
2023-05-09T22:43:58.413Z,3.80
2023-05-09T22:46:26.109Z,3.60
2023-05-09T22:48:53.714Z,4.30
2023-05-09T22:51:21.420Z,4.30
2023-05-09T22:53:49.025Z,4.20
2023-05-09T22:56:16.740Z,4.20
2023-05-09T22:58:44.374Z,4.50
2023-05-09T23:01:11.999Z,4.10
2023-05-09T23:03:39.671Z,4.50
2023-05-09T23:06:07.514Z,4.50
2023-05-09T23:08:35.263Z,4.10
2023-05-09T23:11:02.930Z,4.30
2023-05-09T23:13:30.661Z,4.20
2023-05-09T23:15:58.354Z,3.70
2023-05-09T23:18:28.041Z,4.50
2023-05-09T23:20:55.671Z,4.00
2023-05-09T23:23:23.618Z,4.60
2023-05-09T23:25:51.204Z,4.60
2023-05-09T23:28:20.431Z,4.70
2023-05-09T23:30:48.060Z,4.40
2023-05-09T23:33:16.265Z,5.00
2023-05-09T23:35:43.875Z,4.00
2023-05-09T23:38:11.624Z,4.20
2023-05-09T23:40:39.793Z,4.60
2023-05-09T23:43:07.420Z,4.30
2023-05-09T23:45:35.104Z,4.40
2023-05-09T23:48:02.926Z,4.20
2023-05-09T23:50:30.629Z,4.30
2023-05-09T23:52:58.256Z,4.20
2023-05-09T23:55:25.854Z,4.00
2023-05-09T23:57:53.451Z,4.70
